Time;durP1;ratioP1;P1;durP2;ratioP2;P2;SDS_P1;SDS_P2;PMS_P1;PMS_P2;Temp;Humidity;BMP_temperature;BMP_pressure;BME280_temperature;BME280_humidity;BME280_pressure;Samples;Min_cycle;Max_cycle;Signal;HPM_P1;HPM_P2
2023/09/11 00:01:37;;;;;;;4.13;3.43;;;;;;;23.90;69.37;97515.06;5020133;28;20648;-26
2023/09/11 00:04:04;;;;;;;3.60;3.30;;;;;;;23.89;69.27;97508.16;5030574;28;20221;-26
2023/09/11 00:06:30;;;;;;;4.27;3.10;;;;;;;23.90;69.43;97501.34;5025670;28;20201;-29
2023/09/11 00:08:57;;;;;;;3.87;3.40;;;;;;;23.90;69.16;97499.66;5015742;28;20642;-26
2023/09/11 00:11:24;;;;;;;3.53;3.23;;;;;;;23.91;69.42;97500.50;5022570;28;20551;-26
2023/09/11 00:13:51;;;;;;;3.77;3.37;;;;;;;23.90;69.24;97499.66;5024295;28;20584;-26
2023/09/11 00:16:18;;;;;;;3.33;3.00;;;;;;;23.91;69.26;97503.06;5032632;28;20282;-26
2023/09/11 00:18:45;;;;;;;3.57;3.20;;;;;;;23.91;69.38;97501.38;5033247;28;20229;-26
2023/09/11 00:21:12;;;;;;;3.30;3.00;;;;;;;23.90;69.43;97502.22;5032064;28;20769;-26
2023/09/11 00:23:38;;;;;;;4.77;3.67;;;;;;;23.91;69.37;97503.06;5030903;28;20802;-26
2023/09/11 00:26:05;;;;;;;3.37;3.07;;;;;;;23.90;69.33;97496.22;5028827;28;20247;-26
2023/09/11 00:28:31;;;;;;;3.57;3.27;;;;;;;23.90;69.67;97493.66;5031942;28;20430;-27
2023/09/11 00:31:01;;;;;;;3.63;3.10;;;;;;;23.90;69.34;97493.66;5032213;28;20669;-28
2023/09/11 00:33:28;;;;;;;3.43;3.13;;;;;;;23.89;69.46;97495.34;5032317;28;20222;-26
2023/09/11 00:35:54;;;;;;;3.50;3.20;;;;;;;23.90;69.25;97491.97;5032486;28;20288;-26
2023/09/11 00:38:21;;;;;;;3.67;3.37;;;;;;;23.90;69.35;97486.81;5032508;28;20198;-26
2023/09/11 00:40:48;;;;;;;3.50;3.20;;;;;;;23.90;69.41;97491.09;5032562;28;20888;-27
2023/09/11 00:43:14;;;;;;;7.70;3.60;;;;;;;23.90;69.50;97481.69;5032583;28;20301;-26
2023/09/11 00:45:41;;;;;;;3.40;3.10;;;;;;;23.90;69.37;97481.69;5030710;28;20206;-26
2023/09/11 00:48:08;;;;;;;4.20;3.33;;;;;;;23.87;69.41;97484.19;5032841;28;20225;-26
2023/09/11 00:50:35;;;;;;;3.80;3.33;;;;;;;23.90;69.27;97491.09;5014224;28;20546;-26
2023/09/11 00:53:02;;;;;;;4.50;3.43;;;;;;;23.84;69.01;97476.44;5013991;28;20304;-26
2023/09/11 00:55:29;;;;;;;4.90;3.23;;;;;;;23.85;69.37;97475.59;4996915;23;20312;-25
2023/09/11 00:57:55;;;;;;;3.33;3.03;;;;;;;23.91;69.22;97485.09;4987713;28;20256;-25
2023/09/11 01:00:22;;;;;;;3.63;3.33;;;;;;;23.81;69.57;97472.94;5010334;28;20265;-26
2023/09/11 01:02:48;;;;;;;3.77;3.47;;;;;;;23.91;69.61;97490.25;4989750;28;20246;-27
2023/09/11 01:05:15;;;;;;;3.37;2.97;;;;;;;23.67;69.30;97444.44;5027731;28;20224;-25
2023/09/11 01:07:42;;;;;;;3.47;3.17;;;;;;;23.91;69.79;97479.97;5014764;28;20575;-26
2023/09/11 01:10:09;;;;;;;3.77;3.20;;;;;;;23.90;69.53;97484.25;4999361;28;20553;-25
2023/09/11 01:12:36;;;;;;;3.53;3.23;;;;;;;23.91;69.62;97482.53;5032591;28;20761;-25
2023/09/11 01:15:04;;;;;;;3.83;3.53;;;;;;;23.91;69.73;97485.09;5013443;28;20590;-26
2023/09/11 01:18:18;;;;;;;4.50;3.50;;;;;;;23.91;69.74;97478.28;5014656;28;20197;-26
2023/09/11 01:21:12;;;;;;;3.60;3.30;;;;;;;23.73;69.47;97449.69;4953547;28;20651;-26
2023/09/11 01:23:59;;;;;;;3.63;3.33;;;;;;;23.90;69.35;97474.00;4952893;28;20258;-26
2023/09/11 01:26:43;;;;;;;3.27;2.97;;;;;;;23.89;69.07;97473.97;5023357;28;20268;-25
2023/09/11 01:29:25;;;;;;;3.53;3.23;;;;;;;23.90;69.44;97467.97;5011630;28;20296;-25
2023/09/11 01:31:53;;;;;;;3.23;2.93;;;;;;;23.90;69.19;97476.56;5031817;28;20201;-25
2023/09/11 01:34:20;;;;;;;3.57;3.27;;;;;;;23.90;69.30;97467.97;5031768;28;20655;-25
2023/09/11 01:36:46;;;;;;;3.43;3.13;;;;;;;23.89;69.49;97467.09;5032051;28;20641;-25
2023/09/11 01:39:13;;;;;;;3.70;3.40;;;;;;;23.90;69.47;97456.03;5031752;28;20202;-26
2023/09/11 01:41:41;;;;;;;3.30;3.00;;;;;;;23.90;69.20;97470.56;5010413;28;20249;-27
2023/09/11 01:44:30;;;;;;;3.50;3.20;;;;;;;23.90;69.44;97457.72;5014641;28;20283;-26
2023/09/11 01:46:57;;;;;;;4.33;3.93;;;;;;;23.90;69.55;97463.72;4993686;28;20205;-25
2023/09/11 01:49:24;;;;;;;4.33;3.37;;;;;;;23.90;69.29;97461.16;5031143;28;20205;-26
2023/09/11 01:51:54;;;;;;;3.30;3.00;;;;;;;23.90;69.38;97460.28;5014059;28;20202;-26
2023/09/11 01:54:20;;;;;;;3.60;3.30;;;;;;;23.75;69.38;97432.63;5014261;28;20268;-25
2023/09/11 01:56:47;;;;;;;3.80;3.50;;;;;;;23.90;69.67;97455.16;5013787;28;20511;-26
2023/09/11 01:59:14;;;;;;;3.90;3.60;;;;;;;23.90;69.22;97457.72;5031786;28;20632;-26
2023/09/11 02:01:42;;;;;;;4.23;3.40;;;;;;;23.89;69.55;97459.41;5031019;28;20714;-26
2023/09/11 02:04:09;;;;;;;3.40;3.10;;;;;;;23.90;69.61;97460.28;5031485;28;20647;-26
2023/09/11 02:06:36;;;;;;;3.40;3.10;;;;;;;23.90;69.81;97460.28;5031930;28;20217;-26
2023/09/11 02:09:03;;;;;;;3.47;3.17;;;;;;;23.89;69.74;97456.84;5028453;28;20261;-25
2023/09/11 02:11:30;;;;;;;3.63;3.33;;;;;;;23.90;69.78;97453.47;5028821;28;20251;-26
2023/09/11 02:13:56;;;;;;;3.67;3.37;;;;;;;23.89;69.56;97459.41;5031881;28;20225;-30
2023/09/11 02:16:23;;;;;;;3.50;3.20;;;;;;;23.90;69.58;97452.59;5031194;28;20288;-26
2023/09/11 02:18:49;;;;;;;3.70;3.40;;;;;;;23.90;69.46;97452.59;5032141;28;20636;-26
2023/09/11 02:21:16;;;;;;;3.57;3.27;;;;;;;23.90;69.32;97443.19;5029997;28;20248;-25
2023/09/11 02:23:43;;;;;;;3.07;2.77;;;;;;;23.90;69.40;97455.16;5031263;28;20917;-25
2023/09/11 02:26:09;;;;;;;3.50;3.20;;;;;;;23.72;69.13;97422.31;5031582;28;20205;-26
2023/09/11 02:28:36;;;;;;;3.37;3.10;;;;;;;23.84;69.61;97440.50;5031315;28;20595;-26
2023/09/11 02:31:02;;;;;;;3.67;3.37;;;;;;;23.90;69.49;97450.88;5029147;28;20201;-25
2023/09/11 02:33:29;;;;;;;3.83;3.43;;;;;;;23.90;69.36;97444.88;5030757;28;20233;-26
2023/09/11 02:35:56;;;;;;;3.97;3.33;;;;;;;23.91;69.68;97455.19;5028989;28;20244;-25
2023/09/11 02:38:23;;;;;;;3.53;3.23;;;;;;;23.90;69.69;97456.03;5026079;28;20328;-28
2023/09/11 02:40:50;;;;;;;3.80;3.50;;;;;;;23.91;69.26;97460.31;5031428;28;20227;-26
2023/09/11 02:43:34;;;;;;;3.33;3.07;;;;;;;23.91;69.37;97452.59;5031465;28;20198;-25
2023/09/11 02:46:00;;;;;;;3.93;3.30;;;;;;;23.91;69.68;97455.19;5031257;28;20210;-25
2023/09/11 02:48:27;;;;;;;3.63;3.33;;;;;;;23.91;69.69;97455.19;5031716;28;20240;-25
2023/09/11 02:50:54;;;;;;;3.70;3.40;;;;;;;23.91;69.44;97444.91;5031706;28;20256;-26
2023/09/11 02:53:21;;;;;;;5.63;3.40;;;;;;;23.91;69.61;97442.34;5031486;28;20293;-25
2023/09/11 02:55:48;;;;;;;3.40;3.10;;;;;;;23.92;70.01;97445.78;5031937;28;20252;-26
2023/09/11 02:58:15;;;;;;;3.87;3.50;;;;;;;23.91;70.16;97442.34;5031695;28;20205;-25
2023/09/11 03:00:41;;;;;;;3.97;3.67;;;;;;;23.72;69.81;97416.31;5031164;28;20243;-25
2023/09/11 03:03:09;;;;;;;3.53;3.23;;;;;;;23.91;69.86;97446.59;5008194;28;20367;-27
2023/09/11 03:05:36;;;;;;;3.50;3.20;;;;;;;23.91;69.77;97441.47;5028809;28;20240;-26
2023/09/11 03:08:03;;;;;;;4.03;3.63;;;;;;;23.92;69.40;97445.78;5031383;28;20268;-25
2023/09/11 03:10:29;;;;;;;4.00;3.60;;;;;;;23.91;69.48;97450.03;5030800;28;20205;-26
2023/09/11 03:12:56;;;;;;;3.13;2.93;;;;;;;23.92;69.74;97450.91;5013762;28;20209;-26
2023/09/11 03:15:27;;;;;;;4.00;3.37;;;;;;;23.91;69.28;97444.03;5031593;28;20256;-26
2023/09/11 03:17:53;;;;;;;4.17;3.50;;;;;;;23.91;69.50;97444.91;5030022;28;20216;-26
2023/09/11 03:20:20;;;;;;;3.70;3.40;;;;;;;23.87;69.57;97434.56;5028886;28;20245;-25
2023/09/11 03:22:47;;;;;;;3.73;3.40;;;;;;;23.91;69.67;97442.34;5034983;28;20288;-34
2023/09/11 03:25:13;;;;;;;3.20;2.90;;;;;;;23.91;69.88;97433.75;5034535;28;20670;-27
2023/09/11 03:27:40;;;;;;;3.97;3.67;;;;;;;23.91;70.06;97439.78;5035239;28;20629;-26
2023/09/11 03:30:07;;;;;;;3.53;3.23;;;;;;;23.91;69.57;97432.06;5033925;28;20248;-26
2023/09/11 03:32:33;;;;;;;3.73;3.43;;;;;;;23.92;69.61;97436.34;5034129;28;20202;-26
2023/09/11 03:35:00;;;;;;;3.53;3.23;;;;;;;23.91;70.08;97434.63;5029782;28;20264;-26
2023/09/11 03:37:28;;;;;;;3.70;3.07;;;;;;;23.91;69.92;97437.22;5032946;28;20297;-25
2023/09/11 03:39:55;;;;;;;3.57;3.27;;;;;;;23.91;70.01;97437.22;5030627;28;20221;-26
2023/09/11 03:42:22;;;;;;;3.20;3.00;;;;;;;23.91;70.19;97437.22;5030097;28;20309;-27
2023/09/11 03:44:49;;;;;;;3.73;3.43;;;;;;;23.91;70.20;97438.91;5025153;28;20218;-25
2023/09/11 03:47:15;;;;;;;3.20;3.00;;;;;;;23.90;70.03;97432.94;5030408;28;20201;-25
2023/09/11 03:49:42;;;;;;;3.40;3.20;;;;;;;23.91;69.85;97441.47;5034408;28;20205;-26
2023/09/11 03:52:08;;;;;;;3.30;3.10;;;;;;;23.91;69.74;97438.91;5033326;28;20276;-26
2023/09/11 03:54:35;;;;;;;4.20;3.40;;;;;;;23.90;69.67;97426.91;5033149;28;20229;-26
2023/09/11 03:57:01;;;;;;;3.60;3.30;;;;;;;23.90;69.65;97434.63;5033594;28;20260;-25
2023/09/11 03:59:28;;;;;;;3.23;3.03;;;;;;;23.90;69.62;97438.06;5032421;28;20664;-34
2023/09/11 04:01:55;;;;;;;3.37;3.07;;;;;;;23.90;70.09;97438.06;5033759;28;20226;-25
2023/09/11 04:04:22;;;;;;;3.50;3.20;;;;;;;23.91;69.82;97441.47;5025306;28;20663;-26
2023/09/11 04:06:49;;;;;;;3.03;2.83;;;;;;;23.90;70.09;97442.31;5033722;28;20205;-26
2023/09/11 04:09:15;;;;;;;3.77;3.47;;;;;;;23.91;70.13;97433.75;5033124;28;20202;-26
2023/09/11 04:11:42;;;;;;;3.60;3.30;;;;;;;23.91;70.27;97428.63;5031072;28;20210;-25
2023/09/11 04:14:08;;;;;;;4.07;3.77;;;;;;;23.90;70.26;97432.94;5033305;28;20237;-26
2023/09/11 04:16:35;;;;;;;3.77;3.47;;;;;;;23.91;70.32;97434.63;5029923;28;20233;-26
2023/09/11 04:19:01;;;;;;;3.40;3.10;;;;;;;23.91;70.29;97429.50;5024587;28;20293;-28
2023/09/11 04:21:28;;;;;;;4.00;3.60;;;;;;;23.92;69.89;97431.22;5030405;28;20225;-25
2023/09/11 04:23:55;;;;;;;3.60;3.30;;;;;;;23.92;70.20;97438.94;5030754;28;20218;-26
2023/09/11 04:26:21;;;;;;;3.60;3.30;;;;;;;23.91;70.29;97429.50;5026875;28;20651;-25
2023/09/11 04:28:48;;;;;;;5.83;3.53;;;;;;;23.92;70.37;97432.94;5033226;28;20647;-26
2023/09/11 04:31:15;;;;;;;4.73;3.73;;;;;;;23.92;70.28;97441.50;5032705;28;20213;-26
2023/09/11 04:33:41;;;;;;;3.80;3.40;;;;;;;23.93;70.09;97434.66;5023128;28;20213;-25
2023/09/11 04:36:08;;;;;;;3.80;3.40;;;;;;;23.92;70.41;97435.50;5032158;28;20300;-25
2023/09/11 04:38:35;;;;;;;4.67;3.57;;;;;;;23.92;70.39;97432.94;5016765;28;20226;-25
2023/09/11 04:41:01;;;;;;;4.90;4.40;;;;;;;23.93;70.77;97434.66;5033099;28;20226;-25
2023/09/11 04:43:28;;;;;;;4.47;4.07;;;;;;;23.94;70.98;97434.69;5031368;28;20197;-25
2023/09/11 04:45:55;;;;;;;7.80;5.33;;;;;;;23.96;70.57;97440.78;5033435;28;20624;-26
2023/09/11 04:48:22;;;;;;;6.20;5.60;;;;;;;23.95;71.15;97431.31;5033432;28;20236;-26
2023/09/11 04:50:49;;;;;;;10.70;6.27;;;;;;;23.91;71.47;97429.50;5030618;28;20272;-26
2023/09/11 04:53:16;;;;;;;9.77;6.90;;;;;;;23.96;71.32;97432.19;5029719;28;20297;-25
2023/09/11 04:55:42;;;;;;;10.30;7.07;;;;;;;23.97;71.59;97439.03;5028291;28;20229;-25
2023/09/11 04:58:09;;;;;;;10.23;8.20;;;;;;;23.97;71.47;97436.47;5030753;28;20292;-26
2023/09/11 05:00:35;;;;;;;12.77;8.13;;;;;;;23.95;71.16;97440.72;5030167;28;20205;-26
2023/09/11 05:03:02;;;;;;;10.07;8.60;;;;;;;23.95;70.88;97445.84;5018132;28;20228;-25
2023/09/11 05:05:29;;;;;;;13.33;9.07;;;;;;;23.93;70.74;97438.13;5022590;28;20241;-25
2023/09/11 05:07:55;;;;;;;9.77;8.83;;;;;;;23.92;70.70;97441.50;5021670;28;20259;-26
2023/09/11 05:10:22;;;;;;;10.27;9.17;;;;;;;23.92;71.18;97441.50;5022060;28;20664;-26
2023/09/11 05:12:48;;;;;;;9.87;9.07;;;;;;;23.91;70.81;97444.03;5013043;28;20228;-25
2023/09/11 05:15:15;;;;;;;10.60;9.60;;;;;;;23.89;71.05;97438.88;5031373;28;20288;-25
2023/09/11 05:17:41;;;;;;;9.10;8.30;;;;;;;23.90;70.99;97450.00;5032492;28;20676;-25
2023/09/11 05:20:08;;;;;;;9.30;8.40;;;;;;;23.90;71.28;97452.59;5032413;28;20209;-26
2023/09/11 05:22:35;;;;;;;9.03;8.30;;;;;;;23.89;71.45;97446.56;5032371;28;20573;-25
2023/09/11 05:25:02;;;;;;;9.73;8.60;;;;;;;23.89;72.04;97449.13;5032222;28;20633;-26
2023/09/11 05:27:29;;;;;;;9.13;8.37;;;;;;;23.89;71.98;97451.69;5014343;28;20289;-26
2023/09/11 05:29:56;;;;;;;8.70;8.10;;;;;;;23.88;72.42;97449.97;5029409;28;20678;-26
2023/09/11 05:32:23;;;;;;;10.03;9.17;;;;;;;23.88;72.30;97451.69;5026814;28;20198;-26
2023/09/11 05:34:50;;;;;;;9.80;8.80;;;;;;;23.87;72.54;97455.97;5031840;28;20237;-25
2023/09/11 05:37:17;;;;;;;9.13;8.23;;;;;;;23.87;72.64;97452.53;5028519;28;20568;-26
2023/09/11 05:39:44;;;;;;;8.27;7.47;;;;;;;23.85;72.40;97452.50;5031990;28;20567;-26
2023/09/11 05:42:13;;;;;;;9.23;7.90;;;;;;;23.85;72.51;97457.63;5029913;28;20214;-26
2023/09/11 05:44:40;;;;;;;9.30;8.50;;;;;;;23.84;73.01;97460.16;5032094;28;20723;-25
2023/09/11 05:47:08;;;;;;;9.97;9.07;;;;;;;23.83;72.96;97458.44;5031677;28;20202;-26
2023/09/11 05:49:34;;;;;;;10.67;9.57;;;;;;;23.81;73.25;97460.97;5013600;28;20275;-25
2023/09/11 05:52:01;;;;;;;9.87;8.97;;;;;;;23.82;72.75;97459.25;5031679;28;20222;-25
2023/09/11 05:54:29;;;;;;;10.47;9.50;;;;;;;23.82;72.48;97459.25;5032162;28;20587;-25
2023/09/11 05:56:55;;;;;;;9.37;8.57;;;;;;;23.82;72.61;97461.81;5031757;28;20255;-26
2023/09/11 05:59:22;;;;;;;9.33;8.40;;;;;;;23.81;72.82;97468.69;5032372;28;20193;-26
2023/09/11 06:01:49;;;;;;;8.70;7.90;;;;;;;23.82;72.19;97461.81;5031884;28;20232;-26
2023/09/11 06:04:15;;;;;;;8.00;7.33;;;;;;;23.81;72.43;97463.53;5031672;28;20743;-25
2023/09/11 06:06:42;;;;;;;7.83;7.03;;;;;;;23.75;72.38;97453.16;5031931;28;20282;-25
2023/09/11 06:09:09;;;;;;;8.17;7.47;;;;;;;23.82;72.22;97464.38;5014274;28;20228;-25
2023/09/11 06:11:35;;;;;;;10.23;7.33;;;;;;;23.83;71.97;97464.41;5031794;28;20279;-25
2023/09/11 06:14:04;;;;;;;8.50;7.70;;;;;;;23.84;72.64;97460.16;5031958;28;20320;-25
2023/09/11 06:16:30;;;;;;;10.87;9.77;;;;;;;23.84;74.42;97455.91;5032167;28;20676;-25
2023/09/11 06:18:57;;;;;;;11.83;10.73;;;;;;;23.85;75.48;97455.06;5031552;28;20193;-25
2023/09/11 06:21:24;;;;;;;14.07;11.23;;;;;;;23.86;74.94;97458.50;5030079;28;20231;-25
2023/09/11 06:23:51;;;;;;;10.10;9.13;;;;;;;23.86;73.53;97456.78;5013076;28;20226;-25
2023/09/11 06:26:17;;;;;;;9.67;8.77;;;;;;;23.86;73.33;97455.94;4997303;28;20251;-25
2023/09/11 06:28:44;;;;;;;9.67;8.67;;;;;;;23.87;72.90;97462.78;5031318;28;20243;-27
2023/09/11 06:31:11;;;;;;;9.00;8.20;;;;;;;23.81;72.61;97452.41;5030738;28;20198;-25
2023/09/11 06:33:37;;;;;;;11.13;8.20;;;;;;;23.87;72.38;97457.66;4997050;28;20657;-29
2023/09/11 06:36:04;;;;;;;8.80;8.10;;;;;;;23.86;71.98;97449.06;5030916;28;20198;-25
2023/09/11 06:38:31;;;;;;;9.40;8.40;;;;;;;23.87;72.07;97450.84;5030913;28;20624;-26
2023/09/11 06:40:57;;;;;;;8.53;7.83;;;;;;;23.88;71.74;97454.25;5031401;28;20197;-26
2023/09/11 06:43:24;;;;;;;8.70;7.90;;;;;;;23.88;72.02;97455.13;5030921;28;20275;-25
2023/09/11 06:45:51;;;;;;;8.90;7.50;;;;;;;23.88;71.56;97457.69;5032022;28;20230;-25
2023/09/11 06:48:18;;;;;;;8.27;7.57;;;;;;;23.89;71.56;97461.97;5031485;28;20683;-25
2023/09/11 06:50:45;;;;;;;8.30;7.47;;;;;;;23.88;71.42;97460.25;5031480;28;20202;-25
2023/09/11 06:53:11;;;;;;;8.00;7.20;;;;;;;23.89;71.47;97464.53;5031578;28;20200;-25
2023/09/11 06:55:45;;;;;;;8.40;7.60;;;;;;;23.90;71.50;97470.56;5070638;23;20315;-24
2023/09/11 06:58:12;;;;;;;8.07;7.27;;;;;;;23.89;71.38;97467.09;5066201;28;20238;-25
2023/09/11 07:00:39;;;;;;;7.77;7.07;;;;;;;23.90;71.50;97470.56;5070391;28;20242;-25
2023/09/11 07:03:05;;;;;;;7.83;7.03;;;;;;;23.90;71.51;97462.84;5055275;28;20216;-24
2023/09/11 07:05:32;;;;;;;8.00;7.20;;;;;;;23.87;71.25;97458.53;5058143;28;20308;-25
2023/09/11 07:07:59;;;;;;;7.87;7.17;;;;;;;23.89;71.07;97459.41;5052345;28;20258;-25
2023/09/11 07:10:25;;;;;;;7.60;6.90;;;;;;;23.90;71.12;97458.59;5048334;28;20224;-25
2023/09/11 07:13:06;;;;;;;7.83;6.90;;;;;;;23.91;70.88;97462.00;5043527;28;20254;-23
2023/09/11 07:15:33;;;;;;;7.40;6.77;;;;;;;23.91;70.55;97462.00;5047324;28;20224;-25
2023/09/11 07:18:00;;;;;;;7.60;6.60;;;;;;;23.91;71.03;97460.31;5049224;28;20228;-23
2023/09/11 07:20:27;;;;;;;10.27;6.90;;;;;;;23.90;70.68;97461.16;5050202;28;20433;-25
2023/09/11 07:22:53;;;;;;;7.23;6.53;;;;;;;23.91;70.83;97460.31;5050494;28;20307;-24
2023/09/11 07:25:22;;;;;;;7.50;6.90;;;;;;;23.91;71.14;97457.75;5051147;28;20248;-25
2023/09/11 07:27:50;;;;;;;7.17;6.47;;;;;;;23.91;70.87;97456.88;5050778;28;20216;-24
2023/09/11 07:30:16;;;;;;;7.67;6.73;;;;;;;23.91;70.95;97460.31;5049590;28;20240;-25
2023/09/11 07:32:43;;;;;;;10.07;6.73;;;;;;;23.92;71.15;97463.75;5050259;28;20498;-24
2023/09/11 07:35:10;;;;;;;7.20;6.50;;;;;;;23.93;70.94;97465.47;5050640;28;20227;-25
2023/09/11 07:37:37;;;;;;;7.47;6.77;;;;;;;23.93;70.78;97462.91;5044807;28;20209;-24
2023/09/11 07:40:07;;;;;;;7.07;6.47;;;;;;;23.92;70.97;97456.91;5050377;28;20307;-25
2023/09/11 07:42:33;;;;;;;7.27;6.67;;;;;;;23.92;70.59;97459.47;5047390;28;20228;-24
2023/09/11 07:45:00;;;;;;;6.40;5.80;;;;;;;23.93;70.86;97458.66;5050865;28;20229;-24
2023/09/11 07:47:26;;;;;;;6.90;6.30;;;;;;;23.92;70.71;97448.34;5050520;28;20260;-24
2023/09/11 07:49:53;;;;;;;7.37;6.73;;;;;;;23.91;70.66;97446.59;5047777;28;20709;-24
2023/09/11 07:52:20;;;;;;;6.63;6.03;;;;;;;23.91;70.71;97455.19;5048225;28;20515;-24
2023/09/11 07:54:46;;;;;;;9.60;6.60;;;;;;;23.90;70.74;97450.88;5050714;28;20660;-24
2023/09/11 07:57:13;;;;;;;6.73;6.03;;;;;;;23.91;70.50;97455.19;5049983;28;20288;-23
2023/09/11 07:59:39;;;;;;;10.13;6.10;;;;;;;23.90;70.67;97448.31;5050129;28;20232;-24
2023/09/11 08:02:06;;;;;;;6.50;5.93;;;;;;;23.91;70.46;97449.16;5047556;28;20221;-25
2023/09/11 08:04:33;;;;;;;6.80;6.23;;;;;;;23.90;70.43;97443.19;5049846;28;20282;-25
2023/09/11 08:07:00;;;;;;;7.97;5.70;;;;;;;23.91;70.32;97441.47;5050254;28;20201;-25
2023/09/11 08:09:26;;;;;;;6.63;6.03;;;;;;;23.91;70.18;97446.59;5048778;28;20225;-24
2023/09/11 08:11:53;;;;;;;9.20;6.47;;;;;;;23.90;70.63;97443.19;5045335;28;20213;-23
2023/09/11 08:14:22;;;;;;;9.60;6.57;;;;;;;23.90;70.61;97432.94;5047051;28;20209;-25
2023/09/11 08:16:49;;;;;;;8.13;6.43;;;;;;;23.91;70.64;97438.91;5049110;28;20672;-25
2023/09/11 08:19:16;;;;;;;6.90;6.20;;;;;;;23.92;70.20;97445.78;5046163;28;20739;-23
2023/09/11 08:21:43;;;;;;;7.43;6.73;;;;;;;23.92;70.48;97448.34;5039992;28;20205;-23
2023/09/11 08:24:10;;;;;;;8.20;6.20;;;;;;;23.92;70.10;97445.78;5041690;28;20201;-25
2023/09/11 08:26:38;;;;;;;7.40;6.70;;;;;;;23.92;70.41;97456.06;5049392;28;20300;-24
2023/09/11 08:29:06;;;;;;;6.47;5.63;;;;;;;23.92;70.01;97448.34;5046069;28;20606;-23
2023/09/11 08:31:32;;;;;;;6.67;5.80;;;;;;;23.92;70.17;97448.34;5043772;28;20243;-24
2023/09/11 08:33:59;;;;;;;6.53;5.93;;;;;;;23.93;70.29;97450.06;5048878;28;20209;-23
2023/09/11 08:36:26;;;;;;;6.90;6.30;;;;;;;23.94;71.23;97447.53;5040378;28;20221;-25
2023/09/11 08:38:53;;;;;;;7.07;5.77;;;;;;;23.94;70.60;97442.41;5042073;28;20202;-25
2023/09/11 08:41:19;;;;;;;6.27;5.67;;;;;;;23.94;70.37;97442.41;5048407;28;20204;-25
2023/09/11 08:43:46;;;;;;;6.40;5.57;;;;;;;23.92;69.96;97435.50;5014727;28;20221;-25
2023/09/11 08:46:15;;;;;;;5.80;5.30;;;;;;;23.95;70.03;97446.72;5021997;28;20279;-24
2023/09/11 08:48:46;;;;;;;6.50;5.90;;;;;;;23.95;70.02;97450.97;5046917;28;20258;-25
2023/09/11 08:51:20;;;;;;;10.13;5.60;;;;;;;23.96;70.22;97447.59;5045008;28;20212;-25
2023/09/11 08:53:46;;;;;;;6.40;5.77;;;;;;;23.95;69.84;97444.16;5011479;28;20286;-25
2023/09/11 08:56:13;;;;;;;21.93;5.93;;;;;;;23.87;70.09;97427.72;5048413;28;20310;-24
2023/09/11 08:58:39;;;;;;;7.03;5.87;;;;;;;23.95;70.36;97438.13;5015210;28;20247;-24
2023/09/11 09:01:06;;;;;;;6.47;5.87;;;;;;;23.96;70.17;97445.03;5029209;28;20235;-24
2023/09/11 09:03:33;;;;;;;6.40;5.80;;;;;;;23.89;70.10;97427.75;5031274;28;20220;-25
2023/09/11 09:06:00;;;;;;;6.20;5.60;;;;;;;23.93;69.84;97430.41;5022327;28;20291;-23
2023/09/11 09:08:26;;;;;;;6.20;5.70;;;;;;;23.86;69.96;97423.41;5012010;28;20201;-24
2023/09/11 09:10:53;;;;;;;6.70;6.10;;;;;;;23.97;69.71;97442.50;5015073;28;20208;-24
2023/09/11 09:13:20;;;;;;;6.97;6.27;;;;;;;23.98;69.69;97438.22;5036608;28;20208;-23
2023/09/11 09:15:47;;;;;;;6.03;5.50;;;;;;;23.97;69.58;97436.47;5045233;28;20766;-25
2023/09/11 09:18:13;;;;;;;5.77;5.37;;;;;;;23.94;69.74;97429.56;5040536;28;20583;-25
2023/09/11 09:20:40;;;;;;;6.20;5.70;;;;;;;23.98;70.16;97438.22;5046295;28;20297;-25
2023/09/11 09:23:06;;;;;;;6.43;5.70;;;;;;;23.97;69.98;97432.22;5046064;28;20221;-24
2023/09/11 09:25:33;;;;;;;5.80;5.30;;;;;;;23.96;69.65;97432.19;5045583;28;20735;-25
2023/09/11 09:28:00;;;;;;;6.03;5.53;;;;;;;23.97;70.01;97426.22;5044646;28;20262;-23
2023/09/11 09:30:28;;;;;;;5.63;5.17;;;;;;;23.96;69.93;97419.34;5048383;28;20250;-23
2023/09/11 09:32:54;;;;;;;6.97;5.60;;;;;;;23.99;70.36;97421.97;5040800;28;20671;-24
2023/09/11 09:35:23;;;;;;;6.10;5.50;;;;;;;23.98;70.43;97410.00;5039464;28;20217;-23
2023/09/11 09:37:53;;;;;;;6.17;5.27;;;;;;;23.99;70.06;97416.84;5045821;28;20197;-25
2023/09/11 09:40:30;;;;;;;7.97;5.83;;;;;;;23.99;70.38;97410.03;5040495;28;20296;-24
2023/09/11 09:43:00;;;;;;;8.70;5.50;;;;;;;23.99;70.49;97411.72;5029722;28;20219;-23
2023/09/11 09:45:28;;;;;;;9.73;5.63;;;;;;;24.00;70.56;97411.75;5045558;28;20253;-25
2023/09/11 09:48:07;;;;;;;10.77;6.13;;;;;;;23.99;70.39;97407.44;5045820;28;20571;-24
2023/09/11 09:50:53;;;;;;;8.90;6.20;;;;;;;24.00;70.33;97403.16;5045444;28;20682;-24
2023/09/11 09:53:33;;;;;;;9.23;5.80;;;;;;;23.99;70.71;97399.75;5039332;28;20200;-23
2023/09/11 09:56:04;;;;;;;8.33;5.93;;;;;;;23.99;70.63;97392.03;5046334;28;20228;-24
2023/09/11 09:58:41;;;;;;;9.53;5.50;;;;;;;24.00;70.67;97392.88;5045011;28;20200;-24
2023/09/11 10:01:08;;;;;;;8.70;5.10;;;;;;;24.00;70.59;97395.47;5043559;28;20234;-24
2023/09/11 10:03:47;;;;;;;6.43;5.40;;;;;;;24.00;70.87;97387.75;5040046;28;20252;-25
2023/09/11 10:06:18;;;;;;;12.30;6.37;;;;;;;23.99;70.47;97388.59;5043933;28;20262;-24
2023/09/11 10:08:46;;;;;;;9.60;6.20;;;;;;;23.99;70.82;97389.47;5045446;28;20193;-24
2023/09/11 10:11:27;;;;;;;10.43;6.10;;;;;;;23.99;70.88;97374.06;5046649;28;20240;-24
2023/09/11 10:13:57;;;;;;;6.00;5.50;;;;;;;24.00;70.69;97374.91;5044776;28;20668;-25
2023/09/11 10:16:24;;;;;;;12.40;5.90;;;;;;;23.99;70.66;97366.38;5048596;28;20217;-25
2023/09/11 10:18:55;;;;;;;7.70;5.83;;;;;;;24.00;70.50;97377.50;5024743;28;20254;-25
2023/09/11 10:21:22;;;;;;;7.20;5.67;;;;;;;24.00;70.56;97368.09;5047030;28;20228;-25
2023/09/11 10:23:49;;;;;;;6.83;6.10;;;;;;;24.00;70.48;97362.09;5047095;28;20276;-25
2023/09/11 10:26:25;;;;;;;7.07;5.57;;;;;;;24.01;70.51;97361.28;5047567;28;20223;-24
2023/09/11 10:28:54;;;;;;;7.57;5.80;;;;;;;24.01;70.19;97362.09;5027528;28;20311;-23
2023/09/11 10:31:25;;;;;;;9.50;5.53;;;;;;;24.01;70.07;97361.28;5033789;28;20288;-24
2023/09/11 10:33:56;;;;;;;7.83;5.77;;;;;;;24.01;70.34;97363.84;5033993;28;20193;-24
2023/09/11 10:36:26;;;;;;;10.83;6.10;;;;;;;24.00;70.03;97357.81;5033070;28;20217;-23
2023/09/11 10:38:54;;;;;;;8.30;5.80;;;;;;;24.00;69.84;97359.50;5051691;28;20208;-25
2023/09/11 10:41:21;;;;;;;7.57;5.73;;;;;;;23.87;70.48;97340.47;5033969;28;20240;-24
2023/09/11 10:43:48;;;;;;;7.87;5.47;;;;;;;23.99;70.40;97353.53;5017703;28;20228;-23
2023/09/11 10:46:31;;;;;;;6.20;5.60;;;;;;;23.99;70.47;97352.66;5029549;28;20213;-25
2023/09/11 10:48:58;;;;;;;6.27;5.67;;;;;;;23.99;70.25;97353.53;5047030;28;20204;-24
2023/09/11 10:51:27;;;;;;;7.73;5.93;;;;;;;23.99;69.93;97344.97;5052079;28;20205;-24
2023/09/11 10:53:53;;;;;;;7.30;5.20;;;;;;;23.95;70.05;97336.34;5033290;28;20205;-25
2023/09/11 10:56:20;;;;;;;7.97;5.13;;;;;;;23.90;69.94;97322.56;5034150;28;20237;-24
2023/09/11 10:58:50;;;;;;;5.63;5.10;;;;;;;23.94;69.82;97336.28;5017495;28;20762;-24
2023/09/11 11:01:16;;;;;;;6.67;5.47;;;;;;;23.98;70.13;97340.69;5016607;28;20287;-25
2023/09/11 11:03:45;;;;;;;6.03;5.40;;;;;;;23.99;69.99;97332.13;5033252;28;20217;-25
2023/09/11 11:06:12;;;;;;;6.20;5.60;;;;;;;23.99;69.72;97340.72;5014144;28;20217;-24
2023/09/11 11:08:40;;;;;;;5.83;5.20;;;;;;;23.99;70.12;97338.13;5032049;28;20201;-25
2023/09/11 11:11:27;;;;;;;8.57;5.47;;;;;;;24.00;69.71;97333.84;5047934;28;20197;-24
2023/09/11 11:14:17;;;;;;;7.50;5.07;;;;;;;24.00;69.97;97329.59;5049008;28;20201;-25
2023/09/11 11:17:08;;;;;;;7.17;5.67;;;;;;;24.01;69.49;97325.31;5051074;28;20220;-24
2023/09/11 11:19:51;;;;;;;5.30;4.80;;;;;;;24.01;69.93;97323.59;5051442;28;20266;-23
2023/09/11 11:22:29;;;;;;;6.77;5.60;;;;;;;24.01;69.91;97320.19;5028881;28;20707;-23
2023/09/11 11:24:55;;;;;;;6.03;5.47;;;;;;;24.00;69.80;97323.56;5050930;28;20216;-23
2023/09/11 11:27:24;;;;;;;5.80;5.30;;;;;;;24.00;69.68;97321.00;5048948;28;20284;-25
2023/09/11 11:29:52;;;;;;;6.60;5.03;;;;;;;24.00;70.11;97318.44;5047906;28;20208;-24
2023/09/11 11:32:22;;;;;;;6.37;5.20;;;;;;;24.00;69.87;97310.75;5049607;28;20201;-25
2023/09/11 11:34:50;;;;;;;8.87;5.53;;;;;;;24.00;70.06;97321.00;5049539;28;20707;-25
2023/09/11 11:37:21;;;;;;;5.97;5.00;;;;;;;24.01;70.14;97313.34;5039681;28;20205;-23